Time;durP1;ratioP1;P1;durP2;ratioP2;P2;SDS_P1;SDS_P2;PMS_P1;PMS_P2;Temp;Humidity;BMP_temperature;BMP_pressure;BME280_temperature;BME280_humidity;BME280_pressure;Samples;Min_cycle;Max_cycle;Signal;HPM_P1;HPM_P2
2021/09/30 00:01:32;;;;;;;20.70;9.88;;;;;;;4.81;100.00;102569.02;1725314;81;21003;-81
2021/09/30 00:03:58;;;;;;;19.92;9.53;;;;;;;4.80;100.00;102570.55;1725474;81;20931;-81
2021/09/30 00:06:24;;;;;;;19.62;8.75;;;;;;;4.77;100.00;102568.55;1725632;81;20856;-81
2021/09/30 00:08:49;;;;;;;27.62;10.98;;;;;;;4.75;100.00;102569.20;1725516;81;20879;-81
2021/09/30 00:11:24;;;;;;;29.55;13.00;;;;;;;4.74;100.00;102564.05;1725677;81;21017;-81
2021/09/30 00:13:51;;;;;;;26.25;11.40;;;;;;;4.72;100.00;102565.55;1720674;81;21019;-81
2021/09/30 00:35:04;;;;;;;19.70;8.28;;;;;;;4.64;100.00;102559.40;1721881;81;21037;-80
2021/09/30 00:45:31;;;;;;;20.17;9.53;;;;;;;4.51;100.00;102563.45;1725638;82;21115;-80
2021/09/30 00:48:03;;;;;;;18.85;9.28;;;;;;;4.51;100.00;102566.11;1720598;81;21535;-80
2021/09/30 00:53:15;;;;;;;18.90;8.58;;;;;;;4.46;100.00;102565.78;1725627;81;21652;-80
2021/09/30 00:55:58;;;;;;;16.85;7.97;;;;;;;4.45;100.00;102565.46;1720825;83;21087;-80
2021/09/30 02:58:30;;;;;;;18.23;8.25;;;;;;;3.37;100.00;102608.77;1506558;94;21045;-79
2021/09/30 03:01:03;;;;;;;19.25;8.30;;;;;;;3.35;100.00;102611.61;1520605;93;21059;-79
2021/09/30 03:03:34;;;;;;;17.42;7.62;;;;;;;3.34;100.00;102611.25;1450403;98;21083;-79
2021/09/30 03:06:00;;;;;;;19.10;8.23;;;;;;;3.35;100.00;102609.41;1429167;100;21241;-79
2021/09/30 03:08:28;;;;;;;17.37;7.60;;;;;;;3.34;100.00;102610.42;1462604;97;21154;-78
2021/09/30 03:10:58;;;;;;;17.35;7.50;;;;;;;3.35;100.00;102610.74;1449121;97;21241;-78
2021/09/30 03:13:27;;;;;;;13.83;6.70;;;;;;;3.32;100.00;102616.40;1469000;97;21132;-79
2021/09/30 03:18:29;;;;;;;16.15;7.65;;;;;;;3.25;100.00;102621.55;1528531;93;21568;-79
2021/09/30 03:23:28;;;;;;;18.95;8.15;;;;;;;3.21;100.00;102628.20;1528405;92;21146;-79
2021/09/30 03:25:55;;;;;;;20.10;8.78;;;;;;;3.18;100.00;102630.69;1528123;93;21299;-79
2021/09/30 03:28:24;;;;;;;22.87;8.73;;;;;;;3.18;100.00;102623.20;1528877;93;21591;-79
2021/09/30 03:30:55;;;;;;;24.77;10.20;;;;;;;3.17;100.00;102625.50;1528646;93;21095;-79
2021/09/30 03:33:25;;;;;;;28.23;10.03;;;;;;;3.16;100.00;102625.18;1528467;93;21250;-79
2021/09/30 03:35:51;;;;;;;26.27;10.50;;;;;;;3.15;100.00;102628.34;1528638;93;21039;-78
2021/09/30 03:38:21;;;;;;;22.02;9.75;;;;;;;3.12;100.00;102628.66;1509609;93;21593;-78
2021/09/30 03:40:47;;;;;;;26.12;11.00;;;;;;;3.15;100.00;102626.19;1528742;93;21120;-78
2021/09/30 03:43:13;;;;;;;31.97;11.48;;;;;;;3.15;100.00;102628.84;1514681;94;21130;-79
2021/09/30 03:45:39;;;;;;;23.40;10.30;;;;;;;3.16;100.00;102627.34;1514449;94;21030;-78
2021/09/30 03:48:07;;;;;;;25.02;10.43;;;;;;;3.15;100.00;102628.34;1514470;94;21159;-78
2021/09/30 03:53:12;;;;;;;26.40;9.75;;;;;;;3.18;100.00;102632.52;1519245;94;21109;-79
2021/09/30 04:00:55;;;;;;;25.48;11.50;;;;;;;3.30;100.00;102636.56;1481503;95;21146;-78
2021/09/30 04:03:21;;;;;;;33.08;12.47;;;;;;;3.34;100.00;102637.89;1468675;96;21115;-79
2021/09/30 04:05:47;;;;;;;30.88;12.18;;;;;;;3.41;100.00;102641.60;1451070;97;20958;-78
2021/09/30 04:08:13;;;;;;;35.17;15.40;;;;;;;3.50;100.00;102641.60;1469242;96;20991;-78
2021/09/30 04:10:39;;;;;;;25.82;11.63;;;;;;;3.58;100.00;102646.45;1468880;96;22093;-78
2021/09/30 04:13:05;;;;;;;23.95;11.60;;;;;;;3.66;100.00;102655.49;1469116;96;20966;-78
2021/09/30 04:15:31;;;;;;;23.22;10.65;;;;;;;3.74;100.00;102650.19;1563819;90;21037;-78
2021/09/30 04:17:57;;;;;;;26.93;10.95;;;;;;;3.84;100.00;102654.35;1583925;90;21066;-78
2021/09/30 04:20:23;;;;;;;26.02;12.60;;;;;;;3.93;100.00;102651.20;1580564;90;21156;-78
2021/09/30 04:22:49;;;;;;;32.60;13.22;;;;;;;4.03;100.00;102654.56;1584099;90;21188;-78
2021/09/30 04:25:15;;;;;;;21.62;10.82;;;;;;;4.13;100.00;102657.06;1584090;90;20934;-79
2021/09/30 04:27:41;;;;;;;24.45;12.05;;;;;;;4.22;100.00;102659.23;1584012;90;21005;-78
2021/09/30 04:30:08;;;;;;;22.15;9.80;;;;;;;4.31;100.00;102656.89;1583983;90;20955;-78
2021/09/30 04:32:34;;;;;;;15.58;7.65;;;;;;;4.40;100.00;102653.22;1584012;90;21038;-78
2021/09/30 04:35:00;;;;;;;16.02;7.28;;;;;;;4.60;100.00;102661.72;1618084;86;21960;-79
2021/09/30 04:37:26;;;;;;;14.25;6.62;;;;;;;5.34;100.00;102660.17;1654167;86;21064;-79
2021/09/30 04:39:52;;;;;;;11.25;6.35;;;;;;;6.79;100.00;102662.47;1653965;85;20964;-79
2021/09/30 04:42:18;;;;;;;12.50;5.95;;;;;;;8.46;100.00;102660.70;1725182;82;21019;-79
2021/09/30 04:44:44;;;;;;;14.85;6.33;;;;;;;9.74;100.00;102660.67;1725570;81;21050;-79
2021/09/30 04:47:10;;;;;;;13.95;6.53;;;;;;;11.31;100.00;102658.33;1725314;81;21605;-79
2021/09/30 04:49:36;;;;;;;16.35;6.83;;;;;;;12.40;100.00;102664.02;1725462;81;20970;-79
2021/09/30 04:52:03;;;;;;;14.70;6.65;;;;;;;13.26;100.00;102652.04;1725714;81;21042;-80
2021/09/30 04:54:29;;;;;;;12.37;6.33;;;;;;;14.04;100.00;102657.42;1725490;81;21082;-80
2021/09/30 04:56:55;;;;;;;11.48;5.80;;;;;;;14.69;100.00;102648.98;1725529;81;21002;-80
2021/09/30 04:59:21;;;;;;;12.43;5.40;;;;;;;15.49;100.00;102656.36;1725674;81;21146;-80
2021/09/30 05:01:46;;;;;;;11.50;5.28;;;;;;;16.21;100.00;102664.50;1725336;81;20970;-81
2021/09/30 05:04:12;;;;;;;13.48;5.37;;;;;;;16.69;96.13;102659.80;1725576;81;20891;-80
2021/09/30 05:06:38;;;;;;;9.98;5.45;;;;;;;17.30;84.60;102662.55;1724545;81;20899;-81
2021/09/30 05:09:04;;;;;;;10.13;5.17;;;;;;;17.64;76.67;102666.45;1723747;81;21060;-81
2021/09/30 05:11:40;;;;;;;13.15;5.33;;;;;;;17.91;68.78;102659.66;1723285;81;21069;-80
2021/09/30 05:14:04;;;;;;;11.50;5.53;;;;;;;18.44;67.79;102661.19;1719589;81;20947;-80
2021/09/30 05:16:30;;;;;;;11.10;5.35;;;;;;;18.55;59.14;102667.83;1719114;81;22556;-80
2021/09/30 05:18:56;;;;;;;14.05;5.30;;;;;;;18.34;56.63;102669.59;1695509;81;20855;-81
2021/09/30 05:21:24;;;;;;;12.63;5.03;;;;;;;18.63;58.81;102673.90;1725272;81;21015;-81
2021/09/30 05:23:51;;;;;;;9.95;5.12;;;;;;;18.81;53.08;102671.58;1725594;81;21075;-81
2021/09/30 05:26:18;;;;;;;12.20;4.70;;;;;;;18.36;53.38;102676.98;1722691;81;20943;-81
2021/09/30 05:28:44;;;;;;;12.35;5.15;;;;;;;18.49;53.32;102671.61;1725307;81;21495;-81
2021/09/30 05:31:10;;;;;;;14.58;5.30;;;;;;;19.19;53.44;102672.31;1725733;81;20951;-81
2021/09/30 05:33:35;;;;;;;13.25;4.80;;;;;;;19.48;51.35;102671.88;1697842;83;21728;-81
2021/09/30 05:36:02;;;;;;;8.60;4.70;;;;;;;19.94;51.03;102678.30;1725485;83;21143;-81
2021/09/30 05:38:29;;;;;;;9.15;4.87;;;;;;;19.99;49.09;102672.00;1698815;83;21007;-81
2021/09/30 05:40:55;;;;;;;12.70;4.70;;;;;;;20.42;48.77;102680.22;1711362;81;20995;-82
2021/09/30 05:43:25;;;;;;;18.23;5.12;;;;;;;20.48;47.92;102681.59;1688063;84;21406;-82
2021/09/30 05:45:55;;;;;;;13.28;5.55;;;;;;;20.60;46.78;102685.70;1686323;85;21047;-82
2021/09/30 05:48:17;;;;;;;12.55;4.85;;;;;;;21.22;47.29;102684.98;1685887;85;21130;-82
2021/09/30 05:50:43;;;;;;;11.60;5.65;;;;;;;22.10;47.09;102686.12;1687669;83;20935;-82
2021/09/30 05:53:09;;;;;;;9.90;5.58;;;;;;;22.25;43.63;102689.33;1688254;83;20884;-82
2021/09/30 05:55:34;;;;;;;10.13;5.28;;;;;;;21.91;42.02;102687.37;1687164;84;20960;-80
2021/09/30 05:58:00;;;;;;;17.20;5.10;;;;;;;22.14;42.16;102685.81;1673413;85;20905;-81
2021/09/30 06:04:45;;;;;;;10.82;4.70;;;;;;;22.54;41.70;102685.22;1687505;84;21079;-79
2021/09/30 06:15:50;;;;;;;11.38;4.75;;;;;;;22.48;39.86;102680.08;1537775;93;21547;-80
2021/09/30 06:18:16;;;;;;;12.07;4.75;;;;;;;23.42;39.17;102680.38;1538008;93;21022;-80
2021/09/30 06:20:42;;;;;;;11.55;4.67;;;;;;;23.65;36.78;102679.22;1538194;93;21154;-80
2021/09/30 06:23:08;;;;;;;11.80;4.20;;;;;;;23.23;37.17;102676.21;1538461;93;21514;-80
2021/09/30 06:25:34;;;;;;;11.83;4.60;;;;;;;23.23;37.17;102676.21;1538107;93;21692;-80
2021/09/30 06:28:00;;;;;;;9.48;4.22;;;;;;;23.85;36.74;102681.70;1538843;93;20943;-81
2021/09/30 06:30:29;;;;;;;5.95;4.20;;;;;;;23.48;34.67;102676.44;1538014;93;21113;-81
2021/09/30 06:32:53;;;;;;;6.47;4.30;;;;;;;23.01;36.16;102678.70;1534444;93;21551;-80
2021/09/30 06:35:19;;;;;;;16.27;4.80;;;;;;;23.06;35.19;102680.00;1538263;93;21028;-82
2021/09/30 06:37:45;;;;;;;6.40;4.17;;;;;;;23.17;35.23;102682.89;1538304;93;21103;-82
2021/09/30 06:40:12;;;;;;;11.48;4.33;;;;;;;23.58;34.48;102686.48;1538511;93;20959;-82
2021/09/30 06:42:38;;;;;;;7.42;3.92;;;;;;;23.50;34.21;102677.50;1530461;92;21090;-83
2021/09/30 06:45:05;;;;;;;7.42;3.60;;;;;;;23.60;33.67;102676.56;1506629;95;21069;-83
2021/09/30 06:47:36;;;;;;;9.65;3.95;;;;;;;23.85;33.66;102681.70;1515785;94;21015;-82
2021/09/30 06:49:59;;;;;;;5.15;3.90;;;;;;;23.90;32.90;102676.12;1507026;95;21219;-82
2021/09/30 06:52:25;;;;;;;9.08;3.85;;;;;;;24.03;32.49;102682.80;1516588;94;20939;-83
2021/09/30 06:54:51;;;;;;;7.37;4.10;;;;;;;24.45;31.25;102679.65;1507450;95;21900;-83
2021/09/30 06:57:17;;;;;;;10.48;3.47;;;;;;;24.10;30.92;102683.24;1514912;94;21695;-83
2021/09/30 06:59:45;;;;;;;11.73;4.12;;;;;;;23.95;32.04;102680.74;1506310;95;21600;-82
2021/09/30 07:02:15;;;;;;;16.52;6.15;;;;;;;24.59;31.91;102679.66;1515563;94;22111;-81
2021/09/30 07:04:42;;;;;;;17.32;6.65;;;;;;;24.80;30.64;102685.06;1506050;95;21141;-83
2021/09/30 07:07:08;;;;;;;18.73;6.20;;;;;;;23.93;29.94;102681.59;1515146;94;21090;-81
2021/09/30 07:09:34;;;;;;;6.62;3.72;;;;;;;23.46;30.38;102678.66;1523674;90;21140;-82
2021/09/30 07:12:00;;;;;;;7.80;3.95;;;;;;;23.43;31.35;102679.26;1626613;85;21008;-82
2021/09/30 07:14:27;;;;;;;7.03;3.75;;;;;;;23.88;31.55;102677.53;1659093;85;21941;-82
2021/09/30 07:16:54;;;;;;;8.25;4.00;;;;;;;24.63;30.76;102679.31;1654649;86;21036;-82
2021/09/30 07:19:20;;;;;;;11.12;4.72;;;;;;;24.61;29.79;102678.80;1660367;86;21498;-82
2021/09/30 07:21:45;;;;;;;15.18;4.25;;;;;;;24.50;29.92;102680.91;1660788;86;20848;-83
2021/09/30 07:24:12;;;;;;;11.50;4.35;;;;;;;24.84;30.41;102686.06;1660933;86;21124;-83
2021/09/30 07:26:38;;;;;;;13.25;4.42;;;;;;;25.46;28.85;102680.68;1660710;86;21134;-83
2021/09/30 07:29:04;;;;;;;13.28;4.37;;;;;;;25.05;27.67;102682.33;1660265;86;21042;-84
2021/09/30 07:31:30;;;;;;;11.70;4.00;;;;;;;24.60;28.51;102685.44;1660687;86;20931;-85
2021/09/30 07:33:56;;;;;;;9.55;3.98;;;;;;;24.86;27.89;102683.83;1659533;86;20976;-84
2021/09/30 07:36:22;;;;;;;17.35;4.37;;;;;;;25.14;28.66;102680.52;1656773;86;21034;-83
2021/09/30 07:38:49;;;;;;;9.90;3.80;;;;;;;25.22;27.81;102679.55;1636402;86;21192;-83
2021/09/30 07:41:15;;;;;;;12.88;4.17;;;;;;;25.41;27.89;102675.27;1667545;84;21027;-83
2021/09/30 07:43:41;;;;;;;12.30;4.75;;;;;;;25.32;27.93;102678.75;1724274;81;20999;-82
2021/09/30 07:46:07;;;;;;;7.65;4.37;;;;;;;25.15;26.76;102671.13;1722339;81;21069;-83
2021/09/30 07:48:33;;;;;;;12.75;5.55;;;;;;;25.33;27.93;102663.84;1723780;81;21082;-83
2021/09/30 07:51:00;;;;;;;12.60;4.40;;;;;;;25.73;26.96;102666.78;1725231;81;21834;-83
2021/09/30 07:53:27;;;;;;;16.50;3.80;;;;;;;25.30;26.86;102667.79;1725231;81;21464;-84
2021/09/30 07:55:53;;;;;;;11.20;3.60;;;;;;;24.79;26.14;102666.85;1725285;81;21475;-82
2021/09/30 07:58:20;;;;;;;5.00;2.83;;;;;;;23.95;26.33;102663.66;1724465;81;20872;-82
2021/09/30 08:00:47;;;;;;;7.75;2.65;;;;;;;23.67;26.60;102665.98;1723903;81;21003;-83
2021/09/30 08:03:13;;;;;;;5.10;3.25;;;;;;;23.27;27.27;102662.70;1723993;81;21094;-82
2021/09/30 08:05:39;;;;;;;4.15;2.72;;;;;;;23.26;27.76;102665.98;1724381;81;20900;-84
2021/09/30 08:08:09;;;;;;;4.05;2.98;;;;;;;23.65;26.97;102669.05;1723808;81;20995;-83
2021/09/30 08:10:38;;;;;;;8.78;2.47;;;;;;;23.36;27.35;102660.93;1723589;83;21000;-84
2021/09/30 08:13:05;;;;;;;17.25;8.15;;;;;;;23.85;27.41;102657.48;1724630;81;21522;-83
2021/09/30 08:15:31;;;;;;;7.05;2.95;;;;;;;24.01;27.39;102663.02;1726613;81;21100;-84
2021/09/30 08:17:57;;;;;;;7.60;3.10;;;;;;;23.84;27.55;102667.69;1722945;81;21022;-83
2021/09/30 08:20:24;;;;;;;6.05;2.80;;;;;;;23.95;27.04;102651.82;1725138;81;21030;-82
2021/09/30 08:22:52;;;;;;;5.62;2.67;;;;;;;23.88;27.24;102653.56;1724143;81;21026;-83
2021/09/30 08:25:19;;;;;;;5.87;3.02;;;;;;;23.97;27.20;102661.95;1725294;81;20995;-83
2021/09/30 08:27:45;;;;;;;9.55;4.80;;;;;;;24.08;27.54;102649.66;1725667;81;21788;-84
2021/09/30 08:30:11;;;;;;;12.03;4.83;;;;;;;24.44;26.74;102647.67;1725463;81;20902;-85
2021/09/30 08:32:37;;;;;;;13.08;3.50;;;;;;;24.44;26.74;102649.05;1718966;81;21110;-85
2021/09/30 08:35:05;;;;;;;4.92;2.77;;;;;;;23.94;26.29;102640.53;1696517;83;20955;-86
2021/09/30 08:37:32;;;;;;;23.12;9.53;;;;;;;23.64;26.52;102639.05;1713981;81;21117;-82
2021/09/30 08:39:58;;;;;;;22.05;7.78;;;;;;;23.20;26.48;102645.73;1724818;81;21997;-83
2021/09/30 08:42:25;;;;;;;7.03;3.25;;;;;;;23.37;27.28;102643.86;1700965;81;21004;-83
2021/09/30 08:44:52;;;;;;;3.92;2.50;;;;;;;23.35;26.40;102648.27;1688433;85;21027;-83
2021/09/30 08:47:20;;;;;;;6.05;2.40;;;;;;;22.97;26.64;102643.27;1673254;84;21079;-83
2021/09/30 08:49:46;;;;;;;3.85;2.22;;;;;;;22.99;26.55;102640.48;1687869;85;21507;-83
2021/09/30 08:52:14;;;;;;;24.15;9.95;;;;;;;22.73;26.87;102634.44;1687042;84;21065;-84
2021/09/30 08:54:40;;;;;;;15.32;5.40;;;;;;;23.05;27.13;102615.12;1671895;84;21035;-83
2021/09/30 08:57:06;;;;;;;20.60;8.58;;;;;;;22.68;27.00;102636.70;1680974;83;20983;-85
2021/09/30 08:59:32;;;;;;;14.47;4.75;;;;;;;22.14;26.80;102622.64;1682517;85;21560;-83
2021/09/30 09:02:10;;;;;;;9.55;3.27;;;;;;;21.89;27.59;102628.38;1680515;84;21026;-83
2021/09/30 09:04:55;;;;;;;8.18;2.65;;;;;;;21.93;27.57;102631.61;1681283;83;21854;-83
2021/09/30 09:07:27;;;;;;;15.65;3.17;;;;;;;22.04;27.85;102611.77;1683931;83;21090;-82
2021/09/30 09:09:55;;;;;;;12.20;3.10;;;;;;;21.63;27.53;102632.66;1685948;83;21001;-82
2021/09/30 09:12:23;;;;;;;5.72;2.40;;;;;;;21.17;28.44;102629.33;1686867;85;21064;-83
2021/09/30 09:14:50;;;;;;;9.38;2.65;;;;;;;21.24;28.33;102624.38;1683096;85;20986;-82
2021/09/30 09:17:18;;;;;;;8.68;2.83;;;;;;;21.59;28.75;102617.89;1685132;85;21218;-81
2021/09/30 09:19:51;;;;;;;8.85;2.70;;;;;;;21.00;28.24;102625.03;1686926;85;21382;-81
2021/09/30 09:22:27;;;;;;;5.90;3.02;;;;;;;20.60;29.05;102624.61;1669655;85;21661;-82
2021/09/30 09:25:13;;;;;;;7.92;2.92;;;;;;;20.68;29.83;102624.05;1645977;87;21091;-81
2021/09/30 09:27:55;;;;;;;13.93;3.72;;;;;;;20.70;29.71;102625.94;1648946;86;21581;-81
2021/09/30 09:30:35;;;;;;;8.90;2.87;;;;;;;20.51;30.02;102621.59;1649415;87;21093;-81
2021/09/30 09:33:22;;;;;;;9.65;2.90;;;;;;;20.32;29.92;102622.70;1651410;86;21082;-81
2021/09/30 09:36:04;;;;;;;6.40;2.90;;;;;;;20.20;30.68;102612.59;1650576;86;21063;-81
2021/09/30 09:38:47;;;;;;;13.50;4.87;;;;;;;20.40;30.89;102613.12;1651439;86;21094;-82
2021/09/30 09:41:19;;;;;;;;;;;;;;;19.84;30.07;102615.34;1656088;86;21626;-84
2021/09/30 09:43:45;;;;;;;6.08;3.60;;;;;;;18.88;31.21;102612.59;1572375;88;20202;-81
2021/09/30 09:46:14;;;;;;;14.87;6.62;;;;;;;18.58;32.40;102610.50;1553111;91;21130;-80
2021/09/30 09:49:01;;;;;;;9.13;3.20;;;;;;;18.50;32.09;102613.72;1551822;92;21531;-81
2021/09/30 09:51:48;;;;;;;12.63;2.90;;;;;;;18.00;32.66;102611.75;1557396;89;22482;-81
2021/09/30 09:54:21;;;;;;;30.95;11.55;;;;;;;18.01;33.11;102602.47;1552206;91;21154;-81
2021/09/30 09:56:50;;;;;;;14.15;4.00;;;;;;;17.80;33.38;102606.94;1576314;91;22010;-82
2021/09/30 09:59:31;;;;;;;4.00;2.05;;;;;;;17.58;33.79;102611.05;1573257;89;21126;-82
2021/09/30 10:01:58;;;;;;;23.57;8.20;;;;;;;17.29;33.11;102602.83;1568334;91;21146;-81
2021/09/30 10:04:27;;;;;;;20.37;8.25;;;;;;;16.73;33.91;102601.03;1549234;91;21131;-81
2021/09/30 10:06:53;;;;;;;8.45;2.65;;;;;;;16.45;35.07;102596.56;1567693;91;21047;-81
2021/09/30 10:09:19;;;;;;;5.12;2.58;;;;;;;16.08;34.97;102597.62;1571227;91;21159;-80
2021/09/30 10:11:46;;;;;;;39.80;12.63;;;;;;;15.78;36.43;102597.41;1571278;91;21806;-78
2021/09/30 10:14:12;;;;;;;20.75;7.78;;;;;;;15.55;36.03;102603.75;1571004;91;21116;-78
2021/09/30 10:16:38;;;;;;;42.88;14.00;;;;;;;15.14;36.46;102594.00;1571016;91;21087;-80
2021/09/30 10:19:08;;;;;;;54.50;16.25;;;;;;;14.91;36.84;102588.09;1550886;91;21127;-79
2021/09/30 10:21:37;;;;;;;54.45;16.37;;;;;;;14.79;37.84;102575.08;1640317;85;21109;-79
2021/09/30 10:24:18;;;;;;;67.75;18.67;;;;;;;14.76;38.07;102579.09;1686318;84;21011;-79
2021/09/30 10:26:58;;;;;;;26.27;8.63;;;;;;;14.82;39.14;102574.06;1663190;85;21082;-79
2021/09/30 10:29:46;;;;;;;7.25;2.60;;;;;;;14.87;38.62;102575.54;1676553;85;21590;-81
2021/09/30 10:32:19;;;;;;;7.40;2.40;;;;;;;14.86;38.31;102573.90;1670697;85;21099;-79
2021/09/30 10:34:47;;;;;;;;;;;;;;;14.72;38.11;102573.33;1596431;90;21133;-78
2021/09/30 10:37:31;;;;;;;5.55;2.87;;;;;;;14.70;38.63;102582.23;1594060;90;20177;-79
2021/09/30 10:40:19;;;;;;;4.97;2.42;;;;;;;14.70;38.63;102575.98;1593931;88;21015;-79
2021/09/30 10:42:57;;;;;;;11.93;3.70;;;;;;;14.65;38.94;102572.64;1566012;90;21572;-79
2021/09/30 10:45:38;;;;;;;4.05;2.33;;;;;;;14.68;38.48;102574.06;1572127;90;21069;-79
2021/09/30 10:48:27;;;;;;;4.85;2.50;;;;;;;14.66;38.82;102577.53;1571602;90;22148;-78
2021/09/30 10:51:09;;;;;;;10.68;3.22;;;;;;;14.66;38.46;102578.89;1605331;88;21046;-79
2021/09/30 10:53:53;;;;;;;11.75;4.33;;;;;;;14.67;39.06;102581.35;1589430;89;21121;-80
2021/09/30 10:56:39;;;;;;;4.10;2.35;;;;;;;14.76;38.14;102579.95;1563723;90;21151;-80
2021/09/30 10:59:19;;;;;;;6.85;2.60;;;;;;;14.83;37.65;102580.34;1563180;91;21101;-80
2021/09/30 11:01:53;;;;;;;3.72;2.22;;;;;;;14.92;38.49;102580.26;1559408;90;21076;-80
2021/09/30 11:04:20;;;;;;;16.30;6.10;;;;;;;15.01;38.06;102576.64;1561407;90;22058;-79
2021/09/30 11:07:14;;;;;;;8.88;3.47;;;;;;;15.04;37.82;102573.44;1565372;90;21154;-79
2021/09/30 11:09:40;;;;;;;8.83;2.58;;;;;;;15.10;38.00;102570.58;1554182;90;21061;-80
2021/09/30 11:12:13;;;;;;;3.95;2.20;;;;;;;15.25;38.06;102578.73;1568083;90;21116;-79
2021/09/30 11:14:53;;;;;;;7.10;2.10;;;;;;;15.24;37.14;102575.20;1540419;92;21107;-80
2021/09/30 11:17:37;;;;;;;5.37;1.95;;;;;;;15.33;37.86;102576.45;1520150;93;21313;-79
2021/09/30 11:23:04;;;;;;;3.85;2.27;;;;;;;15.34;37.58;102571.84;1483756;96;21085;-79
2021/09/30 11:26:05;;;;;;;10.10;3.12;;;;;;;15.37;37.90;102574.89;1493611;96;21213;-82
2021/09/30 11:28:31;;;;;;;5.45;2.87;;;;;;;15.34;38.31;102571.30;1485960;96;21195;-80
2021/09/30 11:31:27;;;;;;;6.72;2.67;;;;;;;15.51;38.92;102571.89;1514128;93;21062;-83
2021/09/30 11:33:57;;;;;;;10.95;3.62;;;;;;;15.49;37.58;102572.66;1529655;93;21084;-82
2021/09/30 11:36:32;;;;;;;14.90;5.00;;;;;;;15.56;37.88;102570.09;1496290;95;21117;-79
2021/09/30 11:38:59;;;;;;;14.73;5.75;;;;;;;15.56;37.88;102570.09;1475809;96;21117;-80
2021/09/30 11:41:32;;;;;;;25.15;7.85;;;;;;;15.62;37.00;102569.11;1477194;96;21186;-81
2021/09/30 11:43:59;;;;;;;17.05;4.90;;;;;;;15.68;37.40;102568.70;1435298;98;22001;-80
2021/09/30 11:49:07;;;;;;;10.30;4.20;;;;;;;15.68;37.11;102568.70;1378102;103;21623;-81
2021/09/30 11:51:52;;;;;;;32.67;12.03;;;;;;;15.63;37.17;102555.80;1378764;104;21151;-80
2021/09/30 11:54:22;;;;;;;18.30;6.22;;;;;;;15.69;37.26;102554.03;1370409;103;22061;-81
2021/09/30 11:56:54;;;;;;;21.07;6.53;;;;;;;15.63;37.38;102556.34;1360148;104;22392;-82
2021/09/30 11:59:23;;;;;;;8.97;2.93;;;;;;;15.80;37.39;102550.95;1371177;103;21687;-81
2021/09/30 12:01:52;;;;;;;18.17;6.58;;;;;;;15.98;37.24;102550.70;1375633;103;21117;-81
2021/09/30 12:04:51;;;;;;;14.25;4.42;;;;;;;16.08;37.35;102547.30;1377139;102;21109;-82
2021/09/30 12:07:20;;;;;;;18.52;5.60;;;;;;;16.04;37.18;102538.00;1308289;109;21642;-83
2021/09/30 12:09:54;;;;;;;53.65;17.17;;;;;;;16.01;37.25;102539.32;1307522;109;21169;-81
2021/09/30 12:12:34;;;;;;;;;;;;;;;16.04;37.56;102533.92;1349430;104;21166;-80
2021/09/30 12:15:02;;;;;;;8.23;2.80;;;;;;;16.03;37.50;102537.70;1342698;106;20711;-80
2021/09/30 12:17:32;;;;;;;4.53;2.47;;;;;;;16.04;37.28;102533.39;1335421;106;21242;-80
2021/09/30 12:19:59;;;;;;;25.15;8.88;;;;;;;15.94;36.73;102531.84;1353178;103;21319;-81
2021/09/30 12:22:29;;;;;;;73.50;27.37;;;;;;;15.86;37.06;102527.67;1377950;103;21164;-81
2021/09/30 12:25:01;;;;;;;48.10;12.55;;;;;;;15.86;36.38;102524.13;1373595;103;21203;-80
2021/09/30 12:27:34;;;;;;;10.72;3.77;;;;;;;15.80;36.76;102527.30;1350686;105;21202;-82
2021/09/30 12:30:16;;;;;;;26.52;9.03;;;;;;;15.59;36.50;102535.63;1350197;105;21103;-80
2021/09/30 12:32:50;;;;;;;37.78;13.48;;;;;;;15.47;37.04;102531.31;1335485;106;21312;-81
2021/09/30 12:35:26;;;;;;;19.52;6.60;;;;;;;15.34;37.17;102520.23;1347527;105;21125;-81
2021/09/30 12:37:59;;;;;;;25.12;9.90;;;;;;;15.39;38.18;102523.04;1365050;103;21199;-81
2021/09/30 12:40:38;;;;;;;11.28;5.03;;;;;;;15.40;37.72;102526.86;1377149;103;21676;-82
2021/09/30 12:43:15;;;;;;;13.90;5.80;;;;;;;15.42;37.22;102528.80;1363511;103;21233;-82
2021/09/30 12:45:58;;;;;;;14.55;4.75;;;;;;;15.38;37.05;102529.02;1420773;101;21232;-82
2021/09/30 12:48:29;;;;;;;15.50;5.35;;;;;;;15.34;37.02;102524.30;1388982;101;21181;-82
2021/09/30 12:51:06;;;;;;;7.08;2.72;;;;;;;15.30;37.87;102519.89;1391926;101;21145;-82
2021/09/30 12:53:46;;;;;;;27.65;8.58;;;;;;;15.35;38.01;102520.00;1451845;94;21116;-81
2021/09/30 12:56:17;;;;;;;111.85;36.30;;;;;;;15.42;37.69;102512.50;1486235;94;21690;-85
2021/09/30 12:58:49;;;;;;;17.45;6.58;;;;;;;15.45;37.58;102513.91;1493310;94;23198;-82
2021/09/30 13:04:23;;;;;;;27.65;9.03;;;;;;;15.31;37.39;102509.85;1508815;92;21538;-82
2021/09/30 13:07:05;;;;;;;11.20;3.80;;;;;;;15.27;37.35;102512.78;1490077;94;21106;-83
2021/09/30 13:09:37;;;;;;;17.17;6.15;;;;;;;15.19;37.27;102511.27;1499986;92;21093;-82
2021/09/30 13:12:15;;;;;;;10.13;4.65;;;;;;;15.19;37.43;102513.44;1531560;92;21992;-82
2021/09/30 13:15:06;;;;;;;;;;;;;;;;;;;;;
2021/09/30 13:17:42;;;;;;;;;;;;;;;;;;;;;
2021/09/30 13:25:57;;;;;;;7.47;2.22;;;;;;;15.15;36.94;102508.76;1457361;96;21601;-82
2021/09/30 13:28:22;;;;;;;7.83;2.30;;;;;;;15.06;36.64;102501.53;1463715;97;20998;-80
2021/09/30 13:30:49;;;;;;;14.45;5.20;;;;;;;15.06;37.92;102506.97;1466789;97;21009;-80
2021/09/30 13:33:14;;;;;;;11.22;3.75;;;;;;;15.05;37.43;102506.66;1466772;97;21100;-80
2021/09/30 13:35:40;;;;;;;15.58;5.00;;;;;;;15.01;37.08;102501.44;1464807;97;21145;-81
2021/09/30 13:38:07;;;;;;;29.67;9.38;;;;;;;14.99;37.41;102503.02;1476488;95;21135;-81
2021/09/30 13:40:33;;;;;;;28.92;6.50;;;;;;;15.01;37.69;102500.61;1485899;95;21075;-81
2021/09/30 13:43:01;;;;;;;7.65;3.12;;;;;;;14.98;37.00;102498.66;1504352;94;21780;-81
2021/09/30 13:45:27;;;;;;;14.05;5.00;;;;;;;14.93;37.37;102493.12;1507924;94;21566;-81
2021/09/30 13:47:54;;;;;;;9.80;3.30;;;;;;;14.93;38.20;102495.84;1509782;93;21118;-81
2021/09/30 13:50:24;;;;;;;26.75;5.40;;;;;;;14.92;38.82;102498.28;1485621;94;21161;-83
2021/09/30 13:52:52;;;;;;;8.63;3.33;;;;;;;14.93;38.97;102490.41;1461196;96;21093;-84
2021/09/30 13:55:21;;;;;;;6.08;2.52;;;;;;;14.91;39.36;102493.08;1462278;96;21149;-83
2021/09/30 13:57:47;;;;;;;7.12;2.75;;;;;;;14.87;38.25;102488.67;1473156;96;21117;-82
2021/09/30 14:00:17;;;;;;;6.95;3.10;;;;;;;14.83;38.54;102485.34;1475259;95;21297;-82
2021/09/30 14:02:47;;;;;;;7.08;2.90;;;;;;;14.81;38.56;102488.28;1502102;93;21375;-82
2021/09/30 14:05:18;;;;;;;4.83;2.40;;;;;;;14.78;38.74;102487.95;1520479;93;21215;-82
2021/09/30 14:07:44;;;;;;;5.17;2.35;;;;;;;14.73;38.80;102492.73;1530321;93;21125;-80
2021/09/30 14:10:17;;;;;;;4.67;2.35;;;;;;;14.69;38.94;102486.97;1507775;93;21114;-82
2021/09/30 14:12:44;;;;;;;6.37;2.72;;;;;;;14.61;39.86;102487.33;1521581;93;21150;-83
2021/09/30 14:15:11;;;;;;;6.75;2.67;;;;;;;14.61;39.86;102487.33;1568172;91;21166;-80
2021/09/30 14:17:39;;;;;;;6.42;2.62;;;;;;;14.56;39.57;102479.62;1597165;89;21073;-82
2021/09/30 14:20:05;;;;;;;12.23;2.83;;;;;;;14.51;39.91;102479.81;1601421;89;21110;-82
2021/09/30 14:22:31;;;;;;;14.18;2.80;;;;;;;14.46;40.05;102484.28;1551501;92;21145;-82
2021/09/30 14:24:57;;;;;;;7.50;2.60;;;;;;;14.40;40.12;102479.81;1551254;92;21038;-82
2021/09/30 14:27:26;;;;;;;4.05;2.20;;;;;;;14.35;39.96;102477.80;1551102;92;21632;-81
2021/09/30 14:29:51;;;;;;;3.65;2.15;;;;;;;14.30;40.05;102480.43;1565045;91;21086;-81
2021/09/30 14:32:17;;;;;;;5.87;2.00;;;;;;;14.23;40.23;102487.31;1571378;91;21079;-81
2021/09/30 14:34:43;;;;;;;6.78;2.67;;;;;;;14.17;40.26;102481.48;1571129;91;21082;-82
2021/09/30 14:37:09;;;;;;;3.75;1.87;;;;;;;14.11;40.72;102481.61;1571294;91;20975;-82
2021/09/30 14:39:36;;;;;;;3.60;2.12;;;;;;;14.02;41.07;102476.55;1571604;91;21166;-81
2021/09/30 14:42:02;;;;;;;6.08;2.20;;;;;;;13.95;41.52;102475.85;1571366;91;21113;-82
2021/09/30 14:44:28;;;;;;;3.30;1.82;;;;;;;13.84;41.93;102476.67;1571282;91;21132;-81